Time;durP1;ratioP1;P1;durP2;ratioP2;P2;SDS_P1;SDS_P2;PMS_P1;PMS_P2;Temp;Humidity;BMP_temperature;BMP_pressure;BME280_temperature;BME280_humidity;BME280_pressure;Samples;Min_cycle;Max_cycle;Signal;HPM_P1;HPM_P2
2021/12/03 00:01:09;;;;;;;4.95;0.93;;;2.40;88.10;;;;;;5086941;28;20123;-59
2021/12/03 00:03:35;;;;;;;4.80;0.68;;;2.30;88.40;;;;;;5067489;28;20512;-56
2021/12/03 00:06:02;;;;;;;3.15;0.70;;;2.40;88.40;;;;;;5082752;28;20039;-57
2021/12/03 00:08:29;;;;;;;2.92;0.80;;;2.40;88.30;;;;;;5069137;28;20036;-60
2021/12/03 00:11:00;;;;;;;3.08;0.88;;;2.40;88.40;;;;;;5068518;28;20068;-60
2021/12/03 00:13:30;;;;;;;4.65;1.35;;;2.40;88.40;;;;;;5069200;28;20025;-56
2021/12/03 00:15:58;;;;;;;3.47;1.20;;;2.40;88.40;;;;;;5068579;28;20035;-60
2021/12/03 00:18:26;;;;;;;34.92;10.98;;;2.40;88.40;;;;;;5043176;28;20194;-60
2021/12/03 00:20:58;;;;;;;4.53;1.10;;;2.40;88.20;;;;;;5050728;28;20029;-55
2021/12/03 00:23:27;;;;;;;4.28;0.70;;;2.30;88.40;;;;;;5068783;28;20040;-52
2021/12/03 00:25:55;;;;;;;8.83;0.80;;;2.30;88.70;;;;;;5068599;28;20438;-55
2021/12/03 00:28:21;;;;;;;3.75;1.15;;;2.40;88.70;;;;;;5064245;28;20320;-54
2021/12/03 00:30:48;;;;;;;2.17;0.60;;;2.40;88.80;;;;;;5055436;28;20499;-53
2021/12/03 00:33:15;;;;;;;5.32;0.63;;;2.40;88.90;;;;;;5067924;28;20041;-58
2021/12/03 00:35:42;;;;;;;5.10;2.20;;;2.40;89.10;;;;;;5050898;28;20519;-55
2021/12/03 00:38:09;;;;;;;5.80;3.58;;;2.50;89.10;;;;;;5068477;28;20172;-58
2021/12/03 00:40:39;;;;;;;8.15;2.47;;;2.50;89.20;;;;;;5067103;28;20514;-59
2021/12/03 00:43:06;;;;;;;;;;;2.60;89.20;;;;;;5068832;28;20020;-54
2021/12/03 00:45:34;;;;;;;3.95;0.90;;;2.50;89.10;;;;;;5068869;28;20545;-56
2021/12/03 00:48:02;;;;;;;5.32;0.80;;;2.50;89.00;;;;;;5050815;28;20410;-57
2021/12/03 00:50:30;;;;;;;10.65;1.48;;;2.50;88.80;;;;;;5068073;28;20374;-54
2021/12/03 00:52:58;;;;;;;5.13;2.33;;;2.40;88.50;;;;;;5068354;28;20036;-54
2021/12/03 00:55:29;;;;;;;3.90;1.10;;;2.30;88.40;;;;;;5076391;28;20449;-54
2021/12/03 00:57:56;;;;;;;4.22;1.08;;;2.30;88.40;;;;;;5078572;28;20035;-56
2021/12/03 01:00:27;;;;;;;4.82;0.70;;;2.30;88.30;;;;;;5088245;28;20466;-52
2021/12/03 01:02:56;;;;;;;2.15;1.15;;;2.20;88.20;;;;;;5073956;28;20332;-54
2021/12/03 01:05:23;;;;;;;6.18;1.10;;;2.20;88.10;;;;;;5068683;28;20438;-53
2021/12/03 01:07:53;;;;;;;3.70;0.93;;;2.20;88.30;;;;;;5067841;28;20052;-51
2021/12/03 01:10:21;;;;;;;7.75;1.10;;;2.20;88.30;;;;;;5067954;28;20350;-50
2021/12/03 01:12:53;;;;;;;4.43;1.15;;;2.10;88.20;;;;;;5067377;28;20035;-49
2021/12/03 01:15:27;;;;;;;5.07;0.70;;;2.10;88.30;;;;;;5068032;28;20056;-49
2021/12/03 01:17:54;;;;;;;4.35;0.70;;;2.00;88.10;;;;;;5067504;28;20028;-50
2021/12/03 01:20:22;;;;;;;2.40;0.80;;;2.00;88.40;;;;;;5067409;28;20021;-47
2021/12/03 01:22:51;;;;;;;5.25;0.90;;;2.00;88.40;;;;;;5052589;28;20552;-45
2021/12/03 01:25:19;;;;;;;7.03;0.93;;;1.90;88.30;;;;;;5068235;28;20032;-44
2021/12/03 01:27:45;;;;;;;2.38;0.88;;;1.90;88.40;;;;;;5067350;28;20055;-44
2021/12/03 01:30:16;;;;;;;2.13;0.68;;;1.90;88.40;;;;;;5068105;28;20020;-43
2021/12/03 01:32:43;;;;;;;6.57;1.25;;;1.90;88.40;;;;;;5067140;28;20036;-43
2021/12/03 01:35:12;;;;;;;3.42;0.85;;;1.90;88.50;;;;;;5067915;28;20428;-44
2021/12/03 01:37:39;;;;;;;4.57;1.02;;;1.90;88.50;;;;;;5068053;28;20032;-48
2021/12/03 01:40:09;;;;;;;4.55;2.58;;;1.90;88.70;;;;;;5050372;28;20042;-45
2021/12/03 01:42:38;;;;;;;3.03;1.40;;;1.90;88.80;;;;;;5046582;28;20457;-45
2021/12/03 01:45:07;;;;;;;4.63;2.15;;;1.90;88.70;;;;;;5068210;28;20029;-44
2021/12/03 01:47:34;;;;;;;4.28;0.77;;;1.90;88.60;;;;;;5054705;28;20100;-44
2021/12/03 01:50:01;;;;;;;3.92;0.85;;;1.90;88.70;;;;;;5068069;28;20613;-46
2021/12/03 01:52:30;;;;;;;3.28;0.80;;;1.90;88.70;;;;;;5067557;28;20032;-46
2021/12/03 01:54:59;;;;;;;2.28;0.57;;;1.90;88.60;;;;;;5050582;28;20024;-43
2021/12/03 01:57:27;;;;;;;6.88;1.00;;;1.90;88.50;;;;;;5071682;28;20066;-43
2021/12/03 01:59:55;;;;;;;3.65;0.77;;;1.80;88.40;;;;;;5030701;28;20082;-42
2021/12/03 02:02:21;;;;;;;4.00;1.20;;;1.60;88.30;;;;;;5056964;28;20024;-42
2021/12/03 02:04:49;;;;;;;3.78;0.82;;;1.50;89.00;;;;;;5067258;28;20887;-43
2021/12/03 02:07:19;;;;;;;2.55;0.80;;;1.60;89.40;;;;;;5067782;28;20021;-44
2021/12/03 02:09:46;;;;;;;1.70;0.60;;;1.60;89.20;;;;;;5033890;28;20123;-42
2021/12/03 02:12:12;;;;;;;3.40;1.00;;;1.70;89.10;;;;;;5069592;28;20051;-46
2021/12/03 02:14:39;;;;;;;3.45;1.10;;;1.70;89.10;;;;;;5070444;28;20039;-42
2021/12/03 02:17:06;;;;;;;2.92;0.70;;;1.70;89.00;;;;;;5071018;28;20031;-46
2021/12/03 02:19:34;;;;;;;6.55;0.98;;;1.70;89.00;;;;;;5063695;28;20450;-44
2021/12/03 02:22:04;;;;;;;3.55;0.65;;;1.70;88.90;;;;;;5075997;28;20063;-46
2021/12/03 02:24:31;;;;;;;;;;;1.60;89.10;;;;;;5082937;28;20446;-48
2021/12/03 02:26:58;;;;;;;2.72;1.05;;;1.60;89.40;;;;;;5067550;28;19923;-49
2021/12/03 02:29:26;;;;;;;4.78;0.90;;;1.70;89.50;;;;;;5070966;28;20567;-48
2021/12/03 02:31:53;;;;;;;6.57;0.85;;;1.70;89.40;;;;;;5071289;28;20047;-50
2021/12/03 02:34:20;;;;;;;3.38;0.70;;;1.70;89.40;;;;;;5070528;28;20036;-48
2021/12/03 02:36:46;;;;;;;5.00;0.85;;;1.70;89.20;;;;;;5070233;28;20671;-46
2021/12/03 02:39:13;;;;;;;1.88;0.65;;;1.70;89.20;;;;;;5053637;28;20032;-45
2021/12/03 02:41:40;;;;;;;5.15;1.00;;;1.70;89.10;;;;;;5071073;28;20025;-44
2021/12/03 02:44:07;;;;;;;2.90;1.02;;;1.70;89.10;;;;;;5053493;28;20024;-45
2021/12/03 02:46:34;;;;;;;4.70;0.93;;;1.70;89.00;;;;;;5070904;28;20040;-43
2021/12/03 02:49:00;;;;;;;2.17;0.90;;;1.70;88.90;;;;;;5070924;28;20040;-44
2021/12/03 02:51:27;;;;;;;4.78;1.08;;;1.70;89.10;;;;;;5071386;28;20111;-44
2021/12/03 02:53:54;;;;;;;4.35;1.05;;;1.70;88.90;;;;;;5069192;28;20035;-43
2021/12/03 02:56:21;;;;;;;3.10;1.10;;;1.70;88.80;;;;;;5070903;28;20095;-43
2021/12/03 02:58:48;;;;;;;5.07;1.60;;;1.70;88.90;;;;;;5082396;28;20067;-43
2021/12/03 03:01:15;;;;;;;7.88;2.00;;;1.60;88.80;;;;;;5073468;28;20086;-45
2021/12/03 03:03:42;;;;;;;4.07;1.33;;;1.60;88.90;;;;;;5066162;28;20456;-43
2021/12/03 03:06:09;;;;;;;3.38;1.42;;;1.50;88.70;;;;;;5070771;28;20071;-43
2021/12/03 03:08:39;;;;;;;20.63;2.15;;;1.50;88.80;;;;;;5070268;28;20055;-42
2021/12/03 03:11:07;;;;;;;6.80;1.58;;;1.50;88.90;;;;;;5064444;28;20063;-45
2021/12/03 03:13:38;;;;;;;11.02;2.13;;;1.50;89.00;;;;;;5070019;28;20062;-42
2021/12/03 03:16:05;;;;;;;5.82;1.48;;;1.50;88.90;;;;;;5070033;28;20024;-42
2021/12/03 03:18:32;;;;;;;7.03;1.75;;;1.50;89.00;;;;;;5069720;28;20462;-44
2021/12/03 03:21:02;;;;;;;5.60;1.60;;;1.50;89.10;;;;;;5070126;28;20428;-42
2021/12/03 03:23:29;;;;;;;3.70;1.60;;;1.60;89.10;;;;;;5051379;28;20344;-44
2021/12/03 03:25:58;;;;;;;6.28;1.52;;;1.60;89.30;;;;;;5070444;28;20043;-42
2021/12/03 03:28:24;;;;;;;5.50;1.15;;;1.60;89.50;;;;;;5069869;28;20045;-43
2021/12/03 03:30:56;;;;;;;5.35;3.33;;;1.70;89.50;;;;;;5070296;28;20089;-42
2021/12/03 03:33:23;;;;;;;2.03;0.73;;;1.70;89.60;;;;;;5069961;28;20078;-45
2021/12/03 03:35:48;;;;;;;4.80;0.93;;;1.70;89.50;;;;;;5070246;28;20020;-42
2021/12/03 03:38:17;;;;;;;4.68;0.70;;;1.80;89.50;;;;;;5069842;28;20054;-44
2021/12/03 03:40:46;;;;;;;2.90;0.70;;;1.80;89.40;;;;;;5064131;28;20044;-43
2021/12/03 03:43:13;;;;;;;3.60;0.70;;;1.90;89.30;;;;;;5055130;28;20047;-43
2021/12/03 03:45:42;;;;;;;3.40;0.50;;;1.90;89.20;;;;;;5068704;28;20082;-46
2021/12/03 03:48:09;;;;;;;3.13;1.15;;;2.00;88.90;;;;;;5068379;28;20028;-42
2021/12/03 03:50:37;;;;;;;4.03;1.50;;;2.00;88.70;;;;;;5068841;28;20056;-46
2021/12/03 03:53:04;;;;;;;3.70;0.98;;;2.00;88.60;;;;;;5069326;28;20028;-45
2021/12/03 03:55:31;;;;;;;2.97;0.88;;;2.10;88.60;;;;;;5069598;28;20056;-44
2021/12/03 03:58:02;;;;;;;7.13;1.17;;;2.00;88.60;;;;;;5074248;28;20024;-44
2021/12/03 04:00:36;;;;;;;2.83;0.90;;;2.00;88.60;;;;;;5089268;28;20032;-42
2021/12/03 04:03:03;;;;;;;10.25;1.27;;;2.00;88.60;;;;;;5074429;28;20039;-44
2021/12/03 04:05:29;;;;;;;4.07;0.95;;;2.00;88.60;;;;;;5069708;28;20044;-46
2021/12/03 04:07:56;;;;;;;5.85;1.25;;;2.00;88.60;;;;;;5069414;28;20361;-46
2021/12/03 04:10:23;;;;;;;6.10;0.90;;;2.00;88.50;;;;;;5069485;28;20029;-42
2021/12/03 04:12:50;;;;;;;3.80;1.02;;;2.00;88.60;;;;;;5068979;28;20092;-43
2021/12/03 04:15:18;;;;;;;2.83;0.85;;;1.90;88.40;;;;;;5069342;28;20029;-46
2021/12/03 04:17:46;;;;;;;3.95;1.25;;;2.00;88.40;;;;;;5069348;28;20162;-44
2021/12/03 04:20:15;;;;;;;3.05;1.00;;;2.00;88.50;;;;;;5069438;28;20120;-44
2021/12/03 04:22:45;;;;;;;3.00;1.08;;;1.90;88.50;;;;;;5068967;28;20052;-44
2021/12/03 04:25:17;;;;;;;5.20;1.23;;;1.90;88.60;;;;;;5069199;28;20082;-45
2021/12/03 04:27:42;;;;;;;2.63;1.08;;;1.90;88.60;;;;;;5068491;28;20509;-43
2021/12/03 04:30:13;;;;;;;7.80;1.73;;;1.90;88.60;;;;;;5069046;28;20032;-43
2021/12/03 04:32:41;;;;;;;5.57;1.80;;;1.90;88.70;;;;;;5069061;28;20016;-43
2021/12/03 04:35:08;;;;;;;6.65;1.75;;;1.90;88.70;;;;;;5068998;28;20028;-44
2021/12/03 04:37:35;;;;;;;6.25;2.13;;;1.90;88.90;;;;;;5068289;28;20024;-43
2021/12/03 04:40:04;;;;;;;3.72;1.23;;;1.90;88.80;;;;;;5069005;28;20039;-45
2021/12/03 04:42:31;;;;;;;4.63;1.50;;;1.90;88.90;;;;;;5069102;28;20060;-44
2021/12/03 04:44:58;;;;;;;4.15;1.80;;;1.90;89.00;;;;;;5059002;28;20509;-43
2021/12/03 04:47:25;;;;;;;6.72;1.73;;;1.90;89.00;;;;;;5069055;28;20044;-44
2021/12/03 04:49:52;;;;;;;5.82;2.17;;;1.90;89.10;;;;;;5067644;28;20045;-43
2021/12/03 04:52:19;;;;;;;5.32;1.67;;;1.80;89.10;;;;;;5068449;28;20036;-43
2021/12/03 04:54:46;;;;;;;8.82;2.00;;;1.80;89.20;;;;;;5068752;28;20063;-43
2021/12/03 04:57:13;;;;;;;10.10;2.38;;;1.80;89.10;;;;;;5069153;28;20074;-46
2021/12/03 04:59:40;;;;;;;4.53;2.13;;;1.80;89.20;;;;;;5078447;28;20044;-43
2021/12/03 05:02:07;;;;;;;5.50;2.30;;;1.80;89.30;;;;;;5068423;28;20025;-45
2021/12/03 05:04:38;;;;;;;6.25;1.98;;;1.80;89.20;;;;;;5068305;28;20411;-44
2021/12/03 05:09:37;;;;;;;8.80;2.22;;;1.80;89.40;;;;;;5069166;28;20227;-45
2021/12/03 05:12:05;;;;;;;5.20;2.13;;;1.80;89.20;;;;;;5054435;28;20032;-46
2021/12/03 05:14:32;;;;;;;6.60;1.92;;;1.80;89.30;;;;;;5068649;28;20036;-46
2021/12/03 05:16:59;;;;;;;6.68;2.33;;;1.70;89.40;;;;;;5068336;28;20025;-46
2021/12/03 05:19:28;;;;;;;4.85;2.33;;;1.80;89.40;;;;;;5067435;28;20040;-44
2021/12/03 05:21:55;;;;;;;5.38;2.88;;;1.70;89.50;;;;;;5068378;28;20674;-46
2021/12/03 05:24:22;;;;;;;4.43;2.78;;;1.70;89.60;;;;;;5067523;28;20050;-44
2021/12/03 05:26:48;;;;;;;8.35;3.10;;;1.80;89.70;;;;;;5068289;28;20051;-45
2021/12/03 05:29:17;;;;;;;7.18;3.22;;;1.80;89.60;;;;;;5068615;28;20495;-47
2021/12/03 05:31:45;;;;;;;7.22;3.45;;;1.80;89.60;;;;;;5068499;28;20023;-44
2021/12/03 05:34:13;;;;;;;7.40;3.70;;;1.80;89.50;;;;;;5067821;28;20028;-46
2021/12/03 05:36:40;;;;;;;6.45;3.78;;;1.70;89.50;;;;;;5068084;28;20024;-46
2021/12/03 05:39:07;;;;;;;9.32;3.78;;;1.70;89.50;;;;;;5069080;28;20357;-44
2021/12/03 05:41:35;;;;;;;9.48;4.07;;;1.70;89.50;;;;;;5050421;28;20024;-43
2021/12/03 05:44:03;;;;;;;8.15;4.47;;;1.70;89.50;;;;;;5067679;28;20112;-44
2021/12/03 05:46:30;;;;;;;9.15;5.05;;;1.70;89.60;;;;;;5050661;28;20621;-43
2021/12/03 05:48:57;;;;;;;9.75;4.75;;;1.70;89.70;;;;;;5071391;28;20438;-43
2021/12/03 05:51:26;;;;;;;15.40;5.82;;;1.70;89.60;;;;;;5072050;28;20470;-46
2021/12/03 05:53:53;;;;;;;11.63;5.22;;;1.70;89.50;;;;;;5072022;28;20124;-43
2021/12/03 05:56:20;;;;;;;12.63;7.47;;;1.60;89.70;;;;;;5071657;28;20029;-45
2021/12/03 05:58:48;;;;;;;13.82;7.20;;;1.70;89.60;;;;;;5068891;28;20028;-44
2021/12/03 06:01:16;;;;;;;8.48;6.75;;;1.70;89.60;;;;;;5081407;28;20040;-45
2021/12/03 06:03:41;;;;;;;14.75;8.48;;;1.70;89.70;;;;;;5071337;28;20040;-43
2021/12/03 06:06:08;;;;;;;12.63;8.27;;;1.70;89.70;;;;;;5053866;28;20036;-45
2021/12/03 06:08:35;;;;;;;14.57;9.10;;;1.70;89.70;;;;;;5070861;28;20044;-44
2021/12/03 06:11:02;;;;;;;14.95;8.60;;;1.70;89.70;;;;;;5071370;28;20078;-44
2021/12/03 06:13:28;;;;;;;17.13;9.68;;;1.70;89.80;;;;;;5071085;28;20025;-45
2021/12/03 06:15:55;;;;;;;15.65;10.43;;;1.80;89.80;;;;;;5071528;28;20070;-43
2021/12/03 06:18:22;;;;;;;14.98;10.75;;;1.70;89.60;;;;;;5053562;28;20036;-44
2021/12/03 06:20:49;;;;;;;13.63;10.23;;;1.70;89.70;;;;;;5054365;28;20455;-46
2021/12/03 06:23:17;;;;;;;20.00;11.00;;;1.70;89.70;;;;;;5069286;28;20040;-44
2021/12/03 06:25:46;;;;;;;13.93;10.13;;;1.80;89.70;;;;;;5070631;28;20024;-44
2021/12/03 06:28:12;;;;;;;15.38;10.52;;;1.80;89.60;;;;;;5069344;28;20511;-43
2021/12/03 06:30:41;;;;;;;23.33;11.40;;;1.70;89.60;;;;;;5070765;28;20029;-46
2021/12/03 06:33:10;;;;;;;16.85;11.27;;;1.70;89.50;;;;;;5058477;28;20108;-47
2021/12/03 06:35:37;;;;;;;17.35;10.88;;;1.70;89.50;;;;;;5070304;28;20067;-48
2021/12/03 06:38:03;;;;;;;18.10;11.98;;;1.70;89.50;;;;;;5070612;28;20028;-45
2021/12/03 06:40:30;;;;;;;14.20;10.07;;;1.70;89.50;;;;;;5060174;28;20051;-44
2021/12/03 06:42:57;;;;;;;13.70;10.25;;;1.70;89.60;;;;;;5069671;28;20024;-42
2021/12/03 06:45:24;;;;;;;18.25;14.25;;;1.70;89.50;;;;;;5062269;28;20486;-44
2021/12/03 06:47:52;;;;;;;16.02;10.18;;;1.70;89.40;;;;;;5068972;28;20029;-43
2021/12/03 06:50:20;;;;;;;14.18;10.75;;;1.70;89.40;;;;;;5071230;28;20025;-44
2021/12/03 06:52:59;;;;;;;14.15;11.70;;;1.70;89.20;;;;;;5061393;28;20028;-44
2021/12/03 06:55:27;;;;;;;15.85;11.57;;;1.70;89.20;;;;;;5070727;28;20029;-43
2021/12/03 06:57:54;;;;;;;14.07;9.75;;;1.70;89.20;;;;;;5061464;28;20563;-43
2021/12/03 07:00:22;;;;;;;13.45;10.85;;;1.70;89.10;;;;;;5070983;28;20090;-42
2021/12/03 07:02:50;;;;;;;15.27;11.02;;;1.70;89.20;;;;;;5070437;28;20036;-48
2021/12/03 07:05:16;;;;;;;16.30;11.70;;;1.70;89.00;;;;;;5070777;28;20036;-44
2021/12/03 07:07:48;;;;;;;13.23;10.65;;;1.70;89.10;;;;;;5060898;28;20076;-43
2021/12/03 07:10:14;;;;;;;15.70;11.48;;;1.60;89.00;;;;;;5053420;28;20024;-46
2021/12/03 07:12:42;;;;;;;13.68;11.65;;;1.60;88.90;;;;;;5052853;28;20104;-43
2021/12/03 07:15:09;;;;;;;16.77;12.38;;;1.60;89.00;;;;;;5052972;28;20021;-43
2021/12/03 07:17:36;;;;;;;17.35;11.93;;;1.60;88.90;;;;;;5067331;28;20036;-42
2021/12/03 07:20:03;;;;;;;12.55;11.20;;;1.60;88.80;;;;;;5068396;28;20405;-42
2021/12/03 07:22:30;;;;;;;17.58;12.85;;;1.60;88.80;;;;;;5066878;28;20036;-45
2021/12/03 07:24:57;;;;;;;17.42;11.57;;;1.60;88.70;;;;;;5069556;28;20049;-46
2021/12/03 07:27:23;;;;;;;16.17;12.93;;;1.60;88.80;;;;;;5067216;28;20039;-42
2021/12/03 07:29:50;;;;;;;16.88;11.48;;;1.50;88.80;;;;;;5052005;28;20025;-43
2021/12/03 07:32:20;;;;;;;15.07;10.70;;;1.60;88.80;;;;;;5066896;28;20053;-45
2021/12/03 07:34:46;;;;;;;;;;;1.50;88.70;;;;;;5069414;28;20025;-44
2021/12/03 07:37:13;;;;;;;15.45;10.57;;;1.60;88.80;;;;;;5058553;28;19920;-43
2021/12/03 07:39:40;;;;;;;15.00;11.48;;;1.60;88.70;;;;;;5070629;28;20044;-43
2021/12/03 07:42:07;;;;;;;17.92;11.23;;;1.60;88.70;;;;;;5069975;28;20028;-41
2021/12/03 07:44:34;;;;;;;15.32;11.73;;;1.60;88.70;;;;;;5069519;28;20045;-44
2021/12/03 07:47:01;;;;;;;16.50;13.32;;;1.60;88.70;;;;;;5070145;28;20124;-43
2021/12/03 07:49:28;;;;;;;21.20;11.18;;;1.60;88.70;;;;;;5069129;28;20039;-45
2021/12/03 07:51:56;;;;;;;14.82;10.90;;;1.70;88.70;;;;;;5065694;28;20052;-46
2021/12/03 07:54:23;;;;;;;15.70;11.73;;;1.70;88.60;;;;;;5069979;28;20017;-44
2021/12/03 07:56:50;;;;;;;19.92;11.15;;;1.70;88.70;;;;;;5069675;28;20052;-45
2021/12/03 07:59:17;;;;;;;13.18;10.05;;;1.70;88.60;;;;;;5070657;28;20048;-45
2021/12/03 08:01:45;;;;;;;18.52;10.75;;;1.80;88.70;;;;;;5069700;28;20107;-44
2021/12/03 08:04:13;;;;;;;15.32;9.93;;;1.80;88.60;;;;;;5065115;28;20662;-43
2021/12/03 08:06:42;;;;;;;13.00;11.13;;;1.80;88.70;;;;;;5043128;28;20072;-42
2021/12/03 08:09:08;;;;;;;16.13;11.55;;;1.90;88.50;;;;;;5068035;28;20107;-43
2021/12/03 08:11:39;;;;;;;17.58;11.38;;;1.90;88.50;;;;;;5064001;28;20056;-46
2021/12/03 08:14:05;;;;;;;19.63;12.90;;;1.90;88.50;;;;;;5051902;28;20404;-45
2021/12/03 08:16:32;;;;;;;15.50;11.43;;;1.90;88.70;;;;;;5068857;28;20449;-44
2021/12/03 08:18:59;;;;;;;17.40;11.63;;;1.90;88.70;;;;;;5069329;28;20037;-45
2021/12/03 08:21:25;;;;;;;15.00;12.63;;;2.00;88.70;;;;;;5069088;28;20355;-44
2021/12/03 08:23:51;;;;;;;14.80;11.55;;;2.00;88.80;;;;;;5069516;28;20024;-45
2021/12/03 08:26:18;;;;;;;17.60;12.45;;;2.00;88.80;;;;;;5068107;28;20361;-52
2021/12/03 08:28:45;;;;;;;15.10;10.95;;;2.10;88.80;;;;;;5068548;28;20091;-55
2021/12/03 08:31:14;;;;;;;17.77;11.68;;;2.20;88.70;;;;;;5053002;28;20078;-56
2021/12/03 08:33:43;;;;;;;;;;;2.20;88.70;;;;;;5069031;28;20513;-53
2021/12/03 08:36:11;;;;;;;18.75;10.73;;;2.20;88.70;;;;;;5049250;28;19908;-58
2021/12/03 08:38:40;;;;;;;17.42;11.18;;;2.30;88.80;;;;;;5059811;28;20088;-58
2021/12/03 08:41:06;;;;;;;11.82;10.32;;;2.20;88.80;;;;;;5069294;28;20039;-57
2021/12/03 08:43:32;;;;;;;21.65;11.93;;;2.20;88.90;;;;;;5069031;28;20066;-58
2021/12/03 08:46:09;;;;;;;13.30;10.23;;;2.20;89.00;;;;;;5051244;28;20422;-56
2021/12/03 08:48:43;;;;;;;13.98;10.45;;;2.20;89.00;;;;;;5068229;28;20032;-58
2021/12/03 08:56:32;;;;;;;14.93;13.02;;;2.20;89.20;;;;;;5069007;28;20167;-53
2021/12/03 08:58:58;;;;;;;17.00;12.07;;;2.30;89.30;;;;;;5068809;28;20115;-56
2021/12/03 09:01:24;;;;;;;16.58;11.45;;;2.30;89.10;;;;;;5068667;28;20190;-55
2021/12/03 09:03:52;;;;;;;14.13;11.52;;;2.40;89.00;;;;;;5068910;28;20033;-55
2021/12/03 09:06:19;;;;;;;15.52;13.05;;;2.40;89.10;;;;;;5056223;28;20361;-57
2021/12/03 09:08:45;;;;;;;17.63;13.27;;;2.40;89.00;;;;;;5057522;28;20036;-58
2021/12/03 09:11:13;;;;;;;18.83;13.52;;;2.40;88.80;;;;;;5068665;28;20042;-58
2021/12/03 09:13:40;;;;;;;15.70;13.40;;;2.50;88.90;;;;;;5068673;28;20487;-57
2021/12/03 09:16:08;;;;;;;17.13;12.82;;;2.50;88.80;;;;;;5068827;28;20036;-55
2021/12/03 09:18:41;;;;;;;17.60;13.60;;;2.40;88.60;;;;;;5067836;28;20483;-57
2021/12/03 09:21:13;;;;;;;18.67;15.23;;;2.40;88.80;;;;;;5068350;28;20047;-54
2021/12/03 09:26:29;;;;;;;21.90;15.40;;;2.40;89.00;;;;;;5050121;28;20059;-56
2021/12/03 09:29:05;;;;;;;20.75;15.73;;;2.40;88.90;;;;;;5036391;28;20055;-55
2021/12/03 09:31:34;;;;;;;16.92;14.13;;;2.40;88.90;;;;;;5032419;28;20055;-54
2021/12/03 09:34:01;;;;;;;;;;;2.40;89.00;;;;;;5032788;28;20652;-55
2021/12/03 09:36:29;;;;;;;20.92;15.48;;;2.50;89.00;;;;;;5031570;28;19924;-55
2021/12/03 09:38:56;;;;;;;18.42;15.38;;;2.50;89.00;;;;;;5031917;28;20065;-53
2021/12/03 09:41:26;;;;;;;18.50;15.48;;;2.60;88.80;;;;;;5032150;28;20041;-56
2021/12/03 09:43:53;;;;;;;24.02;16.40;;;2.60;89.00;;;;;;5031985;28;20033;-53
2021/12/03 09:46:23;;;;;;;20.83;15.10;;;2.60;88.80;;;;;;5032121;28;20108;-55
2021/12/03 09:54:27;;;;;;;20.13;15.88;;;2.70;88.70;;;;;;5031746;28;20096;-48
2021/12/03 09:56:59;;;;;;;22.95;15.07;;;2.70;89.00;;;;;;5030879;28;20041;-49
2021/12/03 10:13:59;;;;;;;22.08;15.02;;;2.80;88.90;;;;;;5031781;28;20025;-49
2021/12/03 10:18:58;;;;;;;20.85;15.57;;;2.90;88.90;;;;;;5030459;28;20422;-47
2021/12/03 10:25:19;;;;;;;23.00;16.95;;;2.90;88.80;;;;;;5032236;28;20478;-48
2021/12/03 10:28:07;;;;;;;24.70;16.25;;;2.90;88.80;;;;;;5048906;28;20056;-51
2021/12/03 10:42:15;;;;;;;23.27;16.95;;;3.00;88.80;;;;;;4949302;28;20087;-49
2021/12/03 10:45:20;;;;;;;25.15;18.13;;;3.00;88.80;;;;;;4938493;29;20046;-50
2021/12/03 11:43:11;;;;;;;42.15;22.38;;;3.40;88.20;;;;;;5069913;28;20035;-46
2021/12/03 12:41:46;;;;;;;35.53;18.75;;;3.10;89.20;;;;;;5057914;28;20056;-59
2021/12/03 12:58:23;;;;;;;24.08;14.88;;;2.80;89.50;;;;;;5064359;28;20401;-57
2021/12/03 14:07:06;;;;;;;14.80;8.77;;;2.70;91.00;;;;;;5061200;28;20052;-56
2021/12/03 14:27:53;;;;;;;10.95;6.50;;;2.90;91.00;;;;;;5058653;28;20106;-53
2021/12/03 14:37:18;;;;;;;8.20;6.25;;;2.90;91.10;;;;;;5063024;28;20028;-52
2021/12/03 14:40:10;;;;;;;9.00;6.80;;;2.90;91.10;;;;;;5047086;28;20078;-52
2021/12/03 14:57:58;;;;;;;12.52;8.23;;;3.00;90.90;;;;;;5061202;28;20040;-50
2021/12/03 15:00:18;;;;;;;11.43;7.40;;;3.00;90.80;;;;;;5049741;28;20025;-52
2021/12/03 15:08:59;;;;;;;13.65;8.82;;;3.20;90.60;;;;;;5053768;28;20039;-48
2021/12/03 15:25:16;;;;;;;12.48;9.25;;;3.40;90.70;;;;;;5054159;28;20042;-52
2021/12/03 15:33:01;;;;;;;15.70;10.20;;;3.40;90.50;;;;;;5070851;28;20089;-53
2021/12/03 15:35:47;;;;;;;16.00;10.10;;;3.30;90.50;;;;;;5059900;28;20319;-49
2021/12/03 15:38:30;;;;;;;15.32;9.88;;;3.40;90.60;;;;;;5070238;28;20098;-50
2021/12/03 15:57:44;;;;;;;16.80;11.65;;;3.40;90.60;;;;;;5070261;28;20350;-49
2021/12/03 16:08:17;;;;;;;17.02;11.35;;;3.50;90.80;;;;;;5070032;28;20173;-53
2021/12/03 16:25:00;;;;;;;16.67;12.07;;;3.50;91.00;;;;;;5050250;28;20044;-51
2021/12/03 16:27:40;;;;;;;;;;;3.60;91.10;;;;;;5060014;28;20039;-53
2021/12/03 16:43:53;;;;;;;19.52;12.20;;;3.60;91.30;;;;;;5085839;28;20034;-57
2021/12/03 16:46:34;;;;;;;19.15;12.27;;;3.60;91.30;;;;;;5069084;28;20051;-56
2021/12/03 16:51:57;;;;;;;18.73;12.55;;;3.60;91.40;;;;;;5069096;28;20035;-56
2021/12/03 16:54:33;;;;;;;18.23;12.38;;;3.70;91.40;;;;;;5068723;28;20046;-55
2021/12/03 16:56:58;;;;;;;14.77;12.65;;;3.70;91.50;;;;;;5070612;28;20020;-58
2021/12/03 16:59:25;;;;;;;20.05;13.13;;;3.70;91.50;;;;;;5072769;28;20029;-56
2021/12/03 17:23:41;;;;;;;15.68;12.40;;;4.10;91.60;;;;;;5066515;28;20121;-53
2021/12/03 17:29:32;;;;;;;18.77;13.88;;;4.00;91.20;;;;;;5066452;28;20041;-52
2021/12/03 17:50:41;;;;;;;17.25;15.05;;;4.00;91.60;;;;;;5070041;28;20044;-57
2021/12/03 17:58:32;;;;;;;17.25;15.40;;;4.00;91.70;;;;;;5065197;28;20493;-52
2021/12/03 18:12:12;;;;;;;16.88;15.13;;;4.00;91.80;;;;;;5056481;28;20141;-59
2021/12/03 18:17:44;;;;;;;17.80;15.15;;;4.10;91.80;;;;;;5056404;28;20025;-59
2021/12/03 18:55:52;;;;;;;17.35;15.15;;;4.20;92.20;;;;;;5070581;28;20124;-60
2021/12/03 18:58:21;;;;;;;18.60;15.38;;;4.20;92.30;;;;;;5068233;28;20043;-58
2021/12/03 19:00:48;;;;;;;19.75;15.90;;;4.20;92.30;;;;;;5068945;28;20051;-57
2021/12/03 19:06:01;;;;;;;23.10;16.73;;;4.20;92.30;;;;;;5065764;28;20051;-58
2021/12/03 19:13:43;;;;;;;19.83;15.88;;;4.20;92.40;;;;;;5060141;28;19908;-55
2021/12/03 19:16:15;;;;;;;22.20;17.85;;;4.20;92.40;;;;;;5055972;28;20475;-54
2021/12/03 19:18:48;;;;;;;20.35;16.88;;;4.20;92.40;;;;;;5064402;28;20115;-56
2021/12/03 19:21:24;;;;;;;22.35;17.48;;;4.30;92.40;;;;;;5066594;28;20043;-57
2021/12/03 19:23:58;;;;;;;21.88;17.75;;;4.20;92.30;;;;;;5058045;28;20024;-57
2021/12/03 19:26:27;;;;;;;20.48;16.95;;;4.30;92.30;;;;;;5063810;28;20462;-54
2021/12/03 19:29:00;;;;;;;21.33;16.98;;;4.30;92.30;;;;;;5033361;28;20059;-56
2021/12/03 19:31:28;;;;;;;19.95;16.33;;;4.30;92.30;;;;;;5023569;28;20034;-56
2021/12/03 19:33:57;;;;;;;21.25;17.25;;;4.30;92.40;;;;;;5019618;28;20025;-53
2021/12/03 19:36:25;;;;;;;21.67;17.70;;;4.30;92.40;;;;;;5023999;28;20025;-55
2021/12/03 19:38:57;;;;;;;20.35;17.23;;;4.30;92.40;;;;;;5038938;28;20103;-55
2021/12/03 19:41:36;;;;;;;20.00;16.35;;;4.30;92.40;;;;;;5036377;28;20402;-58
2021/12/03 19:44:09;;;;;;;21.92;17.65;;;4.30;92.40;;;;;;5022781;28;20116;-56
2021/12/03 19:46:39;;;;;;;21.77;17.00;;;4.30;92.40;;;;;;5021999;28;20506;-56
2021/12/03 19:49:15;;;;;;;22.83;19.13;;;4.40;92.40;;;;;;5018916;28;20490;-56
2021/12/03 19:51:47;;;;;;;24.38;19.27;;;4.40;92.40;;;;;;5027612;28;20030;-57
2021/12/03 19:54:15;;;;;;;20.88;17.10;;;4.40;92.30;;;;;;5011817;28;20034;-55
2021/12/03 19:56:42;;;;;;;21.52;18.10;;;4.40;92.40;;;;;;5026113;28;20025;-52
2021/12/03 19:59:08;;;;;;;21.42;17.48;;;4.40;92.40;;;;;;5023682;28;20034;-51
2021/12/03 20:01:37;;;;;;;25.05;18.40;;;4.40;92.40;;;;;;5022962;28;20030;-49
2021/12/03 20:04:04;;;;;;;23.38;18.42;;;4.40;92.40;;;;;;5026711;28;20452;-51
2021/12/03 20:06:31;;;;;;;22.65;18.38;;;4.40;92.40;;;;;;5015519;28;20041;-52
2021/12/03 20:09:01;;;;;;;24.58;19.35;;;4.40;92.40;;;;;;5020234;28;20059;-53
2021/12/03 20:11:38;;;;;;;23.00;18.70;;;4.40;92.50;;;;;;5025038;28;20037;-56
2021/12/03 20:14:08;;;;;;;25.02;19.65;;;4.40;92.40;;;;;;5023603;28;20076;-51
2021/12/03 20:16:58;;;;;;;26.23;19.65;;;4.40;92.40;;;;;;5019380;28;20034;-54
2021/12/03 20:24:33;;;;;;;27.05;20.30;;;4.40;92.40;;;;;;5023296;28;20091;-58
2021/12/03 20:27:07;;;;;;;26.20;19.00;;;4.40;92.50;;;;;;5023113;28;20025;-58
2021/12/03 20:32:19;;;;;;;22.95;17.83;;;4.40;92.50;;;;;;5063365;28;20093;-55
2021/12/03 20:34:53;;;;;;;20.73;16.95;;;4.40;92.50;;;;;;5059478;28;20029;-56
2021/12/03 20:37:26;;;;;;;26.98;18.63;;;4.40;92.50;;;;;;5063275;28;20021;-55
2021/12/03 20:39:55;;;;;;;27.27;19.27;;;4.40;92.50;;;;;;5062949;28;20032;-56
2021/12/03 20:53:49;;;;;;;28.55;21.33;;;4.40;92.50;;;;;;5063231;28;20048;-54
2021/12/03 21:09:53;;;;;;;31.08;23.48;;;4.50;92.60;;;;;;5068627;28;20045;-54
2021/12/03 21:12:25;;;;;;;35.23;25.23;;;4.50;92.60;;;;;;5067435;28;20020;-55
2021/12/03 21:15:55;;;;;;;33.72;24.60;;;4.50;92.60;;;;;;5063502;28;20029;-52
2021/12/03 21:20:29;;;;;;;35.70;24.73;;;4.50;92.60;;;;;;5067231;28;20087;-54